CheckWX is a tool to help pilots better visualize weather data.  It is not intended as a substitute for an official pre-flight weather briefing.

07:01:05 UTC

KSLI TAF
Los Alamitos AAF Airport
Los Alamitos, California, USA
TAF KSLI 210502Z 2105/2211 VRB06KT 9999 FEW020 QNH2984INS BECMG 2111/2112 11009KT 8000 BR BKN006 QNH2987INS BECMG 2117/2118 26009KT 9999 NSW FEW030 QNH2975INS BECMG 2205/2206 17009KT 9999 SCT020 QNH2983INS TX28/2123Z TN16/2112Z

Sep-21@
05:00 UTC

Sep-21 @ 05:00 UTC

Sep-21@
11:00 UTC

Sep-21 @ 11:00 UTC

TAF KSLI 210502Z 2105/2211 VRB06KT 9999 FEW020 QNH2984INS
Wind
  • Variable at 6 KTS
Cloud Levels
  • Few at 2,000' AGL

Sep-21@
11:00 UTC

Sep-21 @ 11:00 UTC

Sep-21@
17:00 UTC

Sep-21 @ 17:00 UTC

BECMG 2111/2112 11009KT 8000 BR BKN006 QNH2987INS

Becoming

Becoming Conditions expected by Sat, Sep 21, 2019 @ 12:00 UTC

Wind
  • 110° at 9 KTS
Conditions
Mist
Cloud Levels
  • Broken at 600' AGL

Sep-21@
17:00 UTC

Sep-21 @ 17:00 UTC

Sep-22@
05:00 UTC

Sep-22 @ 05:00 UTC

BECMG 2117/2118 26009KT 9999 NSW FEW030 QNH2975INS

Becoming

Becoming Conditions expected by Sat, Sep 21, 2019 @ 18:00 UTC

Wind
  • 260° at 9 KTS
Conditions
No significant weather
Cloud Levels
  • Few at 3,000' AGL

Sep-22@
05:00 UTC

Sep-22 @ 05:00 UTC

Sep-22@
11:00 UTC

Sep-22 @ 11:00 UTC

BECMG 2205/2206 17009KT 9999 SCT020 QNH2983INS TX28/2123Z TN16/2112Z

Becoming

Becoming Conditions expected by Sun, Sep 22, 2019 @ 06:00 UTC

Wind
  • 170° at 9 KTS
Conditions
No significant weather
Cloud Levels
  • Scattered at 2,000' AGL